Search for airport 
image banner adimage banner adimage banner ad
image banner ad

33CN - Platform Hillhouse

Located in Carpinteria, United States

ICAO - 33CN, IATA -

Data provided by Airmate  

General information

Coordinates: N34°19'52" W119°36'16"
Elevation is 98 feet MSL.
Magnetic variation is 14° East
View others Airports in California

Operational data

Special qualification required
Current time UTC:
Current local time:
Weather at : KSBA - Santa Barbara Muni ( 24 km )
METAR: KSBA 210153Z 25005KT 7SM HZ CLR 18/15 A2991 RMK AO2 SLP127 T01830150
TAF: KSBA 202334Z 2100/2124 23008KT 6SM HZ SKC FM210300 VRB03KT 6SM HZ SKC FM210800 10005KT 4SM HZ SCT004 FM211800 16007KT 6SM HZ SKC FM212100 21008KT P6SM SKC
View NOTAMs / SUP AIP / TFR affecting this airport [VIEW]
Communications frequencies: [VIEW]

Runways:

Airport contact information

Address: Carpinteria United States

Satellite view of 33CN